sensor_id;sensor_type;location;lat;lon;timestamp;temperature;humidity
52643;DHT22;38531;53.296;6.614;2022-07-22T00:01:34;16.20;99.90
52643;DHT22;38531;53.296;6.614;2022-07-22T00:03:59;16.20;99.90
52643;DHT22;38531;53.296;6.614;2022-07-22T00:06:27;16.20;99.90
52643;DHT22;38531;53.296;6.614;2022-07-22T00:08:53;16.20;99.90
52643;DHT22;38531;53.296;6.614;2022-07-22T00:11:18;16.10;99.90
52643;DHT22;38531;53.296;6.614;2022-07-22T00:13:44;16.20;99.90
52643;DHT22;38531;53.296;6.614;2022-07-22T00:16:11;16.20;99.90
52643;DHT22;38531;53.296;6.614;2022-07-22T00:18:37;16.20;99.90
52643;DHT22;38531;53.296;6.614;2022-07-22T00:21:03;16.20;99.90
52643;DHT22;38531;53.296;6.614;2022-07-22T00:23:29;16.20;99.90
52643;DHT22;38531;53.296;6.614;2022-07-22T00:25:55;16.30;99.90
52643;DHT22;38531;53.296;6.614;2022-07-22T00:28:20;16.40;99.90
52643;DHT22;38531;53.296;6.614;2022-07-22T00:30:46;16.20;99.90
52643;DHT22;38531;53.296;6.614;2022-07-22T00:33:12;16.10;99.90
52643;DHT22;38531;53.296;6.614;2022-07-22T00:35:38;16.30;99.90
52643;DHT22;38531;53.296;6.614;2022-07-22T00:38:03;16.30;99.90
52643;DHT22;38531;53.296;6.614;2022-07-22T00:40:29;16.30;99.90
52643;DHT22;38531;53.296;6.614;2022-07-22T00:42:55;16.30;99.90
52643;DHT22;38531;53.296;6.614;2022-07-22T00:45:21;16.20;99.90
52643;DHT22;38531;53.296;6.614;2022-07-22T00:47:46;16.20;99.90
52643;DHT22;38531;53.296;6.614;2022-07-22T00:50:12;16.20;99.90
52643;DHT22;38531;53.296;6.614;2022-07-22T00:52:41;16.00;99.90
52643;DHT22;38531;53.296;6.614;2022-07-22T00:55:07;16.10;99.90
52643;DHT22;38531;53.296;6.614;2022-07-22T00:57:33;16.10;99.90
52643;DHT22;38531;53.296;6.614;2022-07-22T00:59:59;16.10;99.90
52643;DHT22;38531;53.296;6.614;2022-07-22T01:02:25;16.50;99.90
52643;DHT22;38531;53.296;6.614;2022-07-22T01:04:51;16.10;99.90
52643;DHT22;38531;53.296;6.614;2022-07-22T01:07:17;16.10;99.90
52643;DHT22;38531;53.296;6.614;2022-07-22T01:09:44;16.90;99.90
52643;DHT22;38531;53.296;6.614;2022-07-22T01:12:10;16.10;99.90
52643;DHT22;38531;53.296;6.614;2022-07-22T01:14:36;16.10;99.90
52643;DHT22;38531;53.296;6.614;2022-07-22T01:17:02;16.10;99.90
52643;DHT22;38531;53.296;6.614;2022-07-22T01:19:28;16.00;99.90
52643;DHT22;38531;53.296;6.614;2022-07-22T01:21:54;16.10;99.90
52643;DHT22;38531;53.296;6.614;2022-07-22T01:24:19;16.10;99.90
52643;DHT22;38531;53.296;6.614;2022-07-22T01:26:45;15.90;99.90
52643;DHT22;38531;53.296;6.614;2022-07-22T01:29:11;16.00;99.90
52643;DHT22;38531;53.296;6.614;2022-07-22T01:31:37;16.00;99.90
52643;DHT22;38531;53.296;6.614;2022-07-22T01:34:02;16.00;99.90
52643;DHT22;38531;53.296;6.614;2022-07-22T01:36:28;16.00;99.90
52643;DHT22;38531;53.296;6.614;2022-07-22T01:38:55;16.00;99.90
52643;DHT22;38531;53.296;6.614;2022-07-22T01:41:21;16.00;99.90
52643;DHT22;38531;53.296;6.614;2022-07-22T01:43:46;16.00;99.90
52643;DHT22;38531;53.296;6.614;2022-07-22T01:46:12;16.00;99.90
52643;DHT22;38531;53.296;6.614;2022-07-22T01:48:39;16.60;99.90
52643;DHT22;38531;53.296;6.614;2022-07-22T01:51:05;16.00;99.90
52643;DHT22;38531;53.296;6.614;2022-07-22T01:53:30;16.00;99.90
52643;DHT22;38531;53.296;6.614;2022-07-22T01:55:56;16.00;99.90
52643;DHT22;38531;53.296;6.614;2022-07-22T01:58:22;16.00;99.90
52643;DHT22;38531;53.296;6.614;2022-07-22T02:00:48;16.00;99.90
52643;DHT22;38531;53.296;6.614;2022-07-22T02:03:13;16.00;99.90
52643;DHT22;38531;53.296;6.614;2022-07-22T02:05:40;16.30;99.90
52643;DHT22;38531;53.296;6.614;2022-07-22T02:08:09;16.10;99.90
52643;DHT22;38531;53.296;6.614;2022-07-22T02:10:36;16.30;99.90
52643;DHT22;38531;53.296;6.614;2022-07-22T02:13:03;16.10;99.90
52643;DHT22;38531;53.296;6.614;2022-07-22T02:15:29;16.30;99.90
52643;DHT22;38531;53.296;6.614;2022-07-22T02:17:56;16.10;99.90
52643;DHT22;38531;53.296;6.614;2022-07-22T02:20:22;16.30;99.90
52643;DHT22;38531;53.296;6.614;2022-07-22T02:22:48;16.10;99.90
52643;DHT22;38531;53.296;6.614;2022-07-22T02:25:14;16.00;99.90
52643;DHT22;38531;53.296;6.614;2022-07-22T02:27:41;16.10;99.90
52643;DHT22;38531;53.296;6.614;2022-07-22T02:30:08;16.00;99.90
52643;DHT22;38531;53.296;6.614;2022-07-22T02:32:34;16.00;99.90
52643;DHT22;38531;53.296;6.614;2022-07-22T02:35:00;16.00;99.90
52643;DHT22;38531;53.296;6.614;2022-07-22T02:37:26;15.90;99.90
52643;DHT22;38531;53.296;6.614;2022-07-22T02:39:51;16.00;99.90
52643;DHT22;38531;53.296;6.614;2022-07-22T02:42:17;15.90;99.90
52643;DHT22;38531;53.296;6.614;2022-07-22T02:44:43;15.90;99.90
52643;DHT22;38531;53.296;6.614;2022-07-22T02:47:09;15.90;99.90
52643;DHT22;38531;53.296;6.614;2022-07-22T02:49:34;15.90;99.90
52643;DHT22;38531;53.296;6.614;2022-07-22T02:52:00;16.40;99.90
52643;DHT22;38531;53.296;6.614;2022-07-22T02:54:26;16.40;99.90
52643;DHT22;38531;53.296;6.614;2022-07-22T02:56:51;16.30;99.90
52643;DHT22;38531;53.296;6.614;2022-07-22T02:59:17;15.90;99.90
52643;DHT22;38531;53.296;6.614;2022-07-22T03:01:43;15.80;99.90
52643;DHT22;38531;53.296;6.614;2022-07-22T03:04:08;15.90;99.90
52643;DHT22;38531;53.296;6.614;2022-07-22T03:06:34;16.30;99.90
52643;DHT22;38531;53.296;6.614;2022-07-22T03:09:00;15.90;99.90
52643;DHT22;38531;53.296;6.614;2022-07-22T03:11:25;16.00;99.90
52643;DHT22;38531;53.296;6.614;2022-07-22T03:13:51;15.90;99.90
52643;DHT22;38531;53.296;6.614;2022-07-22T03:16:17;15.80;99.90
52643;DHT22;38531;53.296;6.614;2022-07-22T03:18:42;15.80;99.90
52643;DHT22;38531;53.296;6.614;2022-07-22T03:21:08;15.80;99.90
52643;DHT22;38531;53.296;6.614;2022-07-22T03:23:34;16.10;99.90
52643;DHT22;38531;53.296;6.614;2022-07-22T03:25:59;15.80;99.90
52643;DHT22;38531;53.296;6.614;2022-07-22T03:28:25;15.80;99.90
52643;DHT22;38531;53.296;6.614;2022-07-22T03:30:53;15.80;99.90
52643;DHT22;38531;53.296;6.614;2022-07-22T03:33:18;15.80;99.90
52643;DHT22;38531;53.296;6.614;2022-07-22T03:35:44;15.80;99.90
52643;DHT22;38531;53.296;6.614;2022-07-22T03:38:10;15.80;99.90
52643;DHT22;38531;53.296;6.614;2022-07-22T03:40:35;15.90;99.90
52643;DHT22;38531;53.296;6.614;2022-07-22T03:43:01;15.90;99.90
52643;DHT22;38531;53.296;6.614;2022-07-22T03:45:27;15.80;99.90
52643;DHT22;38531;53.296;6.614;2022-07-22T03:47:52;15.90;99.90
52643;DHT22;38531;53.296;6.614;2022-07-22T03:50:20;15.80;99.90
52643;DHT22;38531;53.296;6.614;2022-07-22T03:52:46;15.80;99.90
52643;DHT22;38531;53.296;6.614;2022-07-22T03:55:11;15.80;99.90
52643;DHT22;38531;53.296;6.614;2022-07-22T03:57:37;15.80;99.90
52643;DHT22;38531;53.296;6.614;2022-07-22T04:00:04;16.00;99.90
52643;DHT22;38531;53.296;6.614;2022-07-22T04:02:30;15.90;99.90
52643;DHT22;38531;53.296;6.614;2022-07-22T04:04:56;15.80;99.90
52643;DHT22;38531;53.296;6.614;2022-07-22T04:07:22;15.80;99.90
52643;DHT22;38531;53.296;6.614;2022-07-22T04:09:48;15.80;99.90
52643;DHT22;38531;53.296;6.614;2022-07-22T04:12:14;15.80;99.90
52643;DHT22;38531;53.296;6.614;2022-07-22T04:14:40;15.80;99.90
52643;DHT22;38531;53.296;6.614;2022-07-22T04:17:05;15.70;99.90
52643;DHT22;38531;53.296;6.614;2022-07-22T04:19:31;15.70;99.90
52643;DHT22;38531;53.296;6.614;2022-07-22T04:21:57;16.00;99.90
52643;DHT22;38531;53.296;6.614;2022-07-22T04:24:22;15.80;99.90
52643;DHT22;38531;53.296;6.614;2022-07-22T04:26:48;15.80;99.90
52643;DHT22;38531;53.296;6.614;2022-07-22T04:29:14;15.70;99.90
52643;DHT22;38531;53.296;6.614;2022-07-22T04:31:40;15.80;99.90
52643;DHT22;38531;53.296;6.614;2022-07-22T04:34:05;15.80;99.90
52643;DHT22;38531;53.296;6.614;2022-07-22T04:36:31;15.90;99.90
52643;DHT22;38531;53.296;6.614;2022-07-22T04:38:57;15.90;99.90
52643;DHT22;38531;53.296;6.614;2022-07-22T04:41:22;15.80;99.90
52643;DHT22;38531;53.296;6.614;2022-07-22T04:43:48;15.80;99.90
52643;DHT22;38531;53.296;6.614;2022-07-22T04:46:14;15.90;99.90
52643;DHT22;38531;53.296;6.614;2022-07-22T04:48:39;15.90;99.90
52643;DHT22;38531;53.296;6.614;2022-07-22T04:51:05;15.80;99.90
52643;DHT22;38531;53.296;6.614;2022-07-22T04:53:31;15.90;99.90
52643;DHT22;38531;53.296;6.614;2022-07-22T04:55:57;15.80;99.90
52643;DHT22;38531;53.296;6.614;2022-07-22T04:58:22;15.90;99.90
52643;DHT22;38531;53.296;6.614;2022-07-22T05:00:48;15.80;99.90
52643;DHT22;38531;53.296;6.614;2022-07-22T05:03:14;15.90;99.90
52643;DHT22;38531;53.296;6.614;2022-07-22T05:05:39;15.90;99.90
52643;DHT22;38531;53.296;6.614;2022-07-22T05:08:05;15.90;99.90
52643;DHT22;38531;53.296;6.614;2022-07-22T05:10:31;15.90;99.90
52643;DHT22;38531;53.296;6.614;2022-07-22T05:12:58;15.90;99.90
52643;DHT22;38531;53.296;6.614;2022-07-22T05:15:24;16.00;99.90
52643;DHT22;38531;53.296;6.614;2022-07-22T05:17:50;15.90;99.90
52643;DHT22;38531;53.296;6.614;2022-07-22T05:20:16;15.80;99.90
52643;DHT22;38531;53.296;6.614;2022-07-22T05:22:42;15.90;99.90
52643;DHT22;38531;53.296;6.614;2022-07-22T05:25:08;15.90;99.90
52643;DHT22;38531;53.296;6.614;2022-07-22T05:27:34;15.90;99.90
52643;DHT22;38531;53.296;6.614;2022-07-22T05:30:00;16.00;99.90
52643;DHT22;38531;53.296;6.614;2022-07-22T05:32:25;16.00;99.90
52643;DHT22;38531;53.296;6.614;2022-07-22T05:34:51;15.80;99.90
52643;DHT22;38531;53.296;6.614;2022-07-22T05:37:17;16.00;99.90
52643;DHT22;38531;53.296;6.614;2022-07-22T05:39:44;16.00;99.90
52643;DHT22;38531;53.296;6.614;2022-07-22T05:42:09;16.10;99.90
52643;DHT22;38531;53.296;6.614;2022-07-22T05:44:35;16.10;99.90
52643;DHT22;38531;53.296;6.614;2022-07-22T05:47:01;16.20;99.90
52643;DHT22;38531;53.296;6.614;2022-07-22T05:49:26;16.10;99.90
52643;DHT22;38531;53.296;6.614;2022-07-22T05:51:53;16.20;99.90
52643;DHT22;38531;53.296;6.614;2022-07-22T05:54:21;16.50;99.90
52643;DHT22;38531;53.296;6.614;2022-07-22T05:56:46;16.10;99.90
52643;DHT22;38531;53.296;6.614;2022-07-22T05:59:12;16.20;99.90
52643;DHT22;38531;53.296;6.614;2022-07-22T06:01:37;16.20;99.90
52643;DHT22;38531;53.296;6.614;2022-07-22T06:04:03;16.30;99.90
52643;DHT22;38531;53.296;6.614;2022-07-22T06:06:29;16.40;99.90
52643;DHT22;38531;53.296;6.614;2022-07-22T06:08:55;16.30;99.90
52643;DHT22;38531;53.296;6.614;2022-07-22T06:11:20;16.30;99.90
52643;DHT22;38531;53.296;6.614;2022-07-22T06:13:46;16.40;99.90
52643;DHT22;38531;53.296;6.614;2022-07-22T06:16:12;16.40;99.90
52643;DHT22;38531;53.296;6.614;2022-07-22T06:18:37;16.40;99.90
52643;DHT22;38531;53.296;6.614;2022-07-22T06:21:04;16.40;99.90
52643;DHT22;38531;53.296;6.614;2022-07-22T06:23:30;16.50;99.90
52643;DHT22;38531;53.296;6.614;2022-07-22T06:25:56;16.50;99.90
52643;DHT22;38531;53.296;6.614;2022-07-22T06:28:22;16.60;99.90
52643;DHT22;38531;53.296;6.614;2022-07-22T06:30:47;16.60;99.90
52643;DHT22;38531;53.296;6.614;2022-07-22T06:33:13;16.50;99.90
52643;DHT22;38531;53.296;6.614;2022-07-22T06:35:40;16.50;99.90
52643;DHT22;38531;53.296;6.614;2022-07-22T06:38:06;16.60;99.90
52643;DHT22;38531;53.296;6.614;2022-07-22T06:40:32;16.60;99.90
52643;DHT22;38531;53.296;6.614;2022-07-22T06:42:58;16.70;99.90
52643;DHT22;38531;53.296;6.614;2022-07-22T06:45:24;16.70;99.90
52643;DHT22;38531;53.296;6.614;2022-07-22T06:47:49;16.70;99.90
52643;DHT22;38531;53.296;6.614;2022-07-22T06:50:15;16.80;99.90
52643;DHT22;38531;53.296;6.614;2022-07-22T06:52:44;16.90;99.90
52643;DHT22;38531;53.296;6.614;2022-07-22T06:55:10;16.90;99.90
52643;DHT22;38531;53.296;6.614;2022-07-22T06:57:36;17.10;99.90
52643;DHT22;38531;53.296;6.614;2022-07-22T07:00:03;17.00;99.90
52643;DHT22;38531;53.296;6.614;2022-07-22T07:02:30;17.10;99.90
52643;DHT22;38531;53.296;6.614;2022-07-22T07:04:57;17.20;99.90
52643;DHT22;38531;53.296;6.614;2022-07-22T07:07:22;17.20;99.90
52643;DHT22;38531;53.296;6.614;2022-07-22T08:25:29;18.50;99.90
52643;DHT22;38531;53.296;6.614;2022-07-22T08:27:55;18.50;99.90
52643;DHT22;38531;53.296;6.614;2022-07-22T08:30:21;18.50;99.90
52643;DHT22;38531;53.296;6.614;2022-07-22T08:32:49;18.30;99.90
52643;DHT22;38531;53.296;6.614;2022-07-22T08:35:14;18.30;99.90
52643;DHT22;38531;53.296;6.614;2022-07-22T08:37:40;18.30;99.90
52643;DHT22;38531;53.296;6.614;2022-07-22T08:40:07;18.30;99.90
52643;DHT22;38531;53.296;6.614;2022-07-22T08:42:42;18.30;99.90
52643;DHT22;38531;53.296;6.614;2022-07-22T08:45:11;18.40;99.90
52643;DHT22;38531;53.296;6.614;2022-07-22T08:47:37;18.40;99.90
52643;DHT22;38531;53.296;6.614;2022-07-22T08:50:03;18.40;99.90
52643;DHT22;38531;53.296;6.614;2022-07-22T08:52:29;18.50;99.90
52643;DHT22;38531;53.296;6.614;2022-07-22T08:54:55;18.40;99.90
52643;DHT22;38531;53.296;6.614;2022-07-22T08:57:21;18.40;99.90
52643;DHT22;38531;53.296;6.614;2022-07-22T08:59:55;18.30;99.90
52643;DHT22;38531;53.296;6.614;2022-07-22T09:02:21;18.30;99.90
52643;DHT22;38531;53.296;6.614;2022-07-22T09:07:29;18.50;99.90
52643;DHT22;38531;53.296;6.614;2022-07-22T09:09:56;18.60;99.90
52643;DHT22;38531;53.296;6.614;2022-07-22T09:12:23;18.60;99.90
52643;DHT22;38531;53.296;6.614;2022-07-22T09:14:51;18.70;99.90
52643;DHT22;38531;53.296;6.614;2022-07-22T09:17:30;18.70;99.90
52643;DHT22;38531;53.296;6.614;2022-07-22T09:19:58;18.80;99.90
52643;DHT22;38531;53.296;6.614;2022-07-22T09:23:01;18.90;99.90
52643;DHT22;38531;53.296;6.614;2022-07-22T09:25:40;19.10;99.90
52643;DHT22;38531;53.296;6.614;2022-07-22T09:30:34;19.00;99.90
52643;DHT22;38531;53.296;6.614;2022-07-22T09:33:04;19.00;99.90
52643;DHT22;38531;53.296;6.614;2022-07-22T09:35:30;18.90;99.90
52643;DHT22;38531;53.296;6.614;2022-07-22T09:38:04;18.90;99.90
52643;DHT22;38531;53.296;6.614;2022-07-22T09:40:33;18.80;99.90
52643;DHT22;38531;53.296;6.614;2022-07-22T09:43:09;18.90;99.90
52643;DHT22;38531;53.296;6.614;2022-07-22T09:45:52;19.00;99.90
52643;DHT22;38531;53.296;6.614;2022-07-22T09:48:27;19.00;99.90
52643;DHT22;38531;53.296;6.614;2022-07-22T09:50:55;19.00;99.90
52643;DHT22;38531;53.296;6.614;2022-07-22T09:53:26;19.10;99.90
52643;DHT22;38531;53.296;6.614;2022-07-22T09:56:00;19.30;99.90
52643;DHT22;38531;53.296;6.614;2022-07-22T09:58:26;19.20;99.90
52643;DHT22;38531;53.296;6.614;2022-07-22T10:00:54;19.20;99.90
52643;DHT22;38531;53.296;6.614;2022-07-22T10:03:28;19.20;99.90
52643;DHT22;38531;53.296;6.614;2022-07-22T10:05:56;19.60;99.90
52643;DHT22;38531;53.296;6.614;2022-07-22T10:08:24;19.30;99.90
52643;DHT22;38531;53.296;6.614;2022-07-22T10:10:52;19.20;99.90
52643;DHT22;38531;53.296;6.614;2022-07-22T10:13:18;19.00;99.90
52643;DHT22;38531;53.296;6.614;2022-07-22T10:15:45;18.80;99.90
52643;DHT22;38531;53.296;6.614;2022-07-22T10:18:17;18.80;99.90
52643;DHT22;38531;53.296;6.614;2022-07-22T10:20:44;18.80;99.90
52643;DHT22;38531;53.296;6.614;2022-07-22T10:23:11;18.80;99.90
52643;DHT22;38531;53.296;6.614;2022-07-22T10:25:52;18.80;99.90
52643;DHT22;38531;53.296;6.614;2022-07-22T10:28:35;18.80;99.90
52643;DHT22;38531;53.296;6.614;2022-07-22T10:31:23;18.80;99.90
52643;DHT22;38531;53.296;6.614;2022-07-22T10:33:54;18.90;99.90
52643;DHT22;38531;53.296;6.614;2022-07-22T10:36:35;19.00;99.90
52643;DHT22;38531;53.296;6.614;2022-07-22T10:39:07;19.20;99.90
52643;DHT22;38531;53.296;6.614;2022-07-22T10:41:38;19.30;99.90
52643;DHT22;38531;53.296;6.614;2022-07-22T10:44:13;19.40;99.90
52643;DHT22;38531;53.296;6.614;2022-07-22T10:53:11;19.70;99.90
52643;DHT22;38531;53.296;6.614;2022-07-22T10:55:38;20.00;99.90
52643;DHT22;38531;53.296;6.614;2022-07-22T11:01:12;20.20;99.90
52643;DHT22;38531;53.296;6.614;2022-07-22T11:04:22;20.20;99.90
52643;DHT22;38531;53.296;6.614;2022-07-22T11:10:49;20.80;99.90
52643;DHT22;38531;53.296;6.614;2022-07-22T11:13:37;21.00;99.90
52643;DHT22;38531;53.296;6.614;2022-07-22T11:16:19;21.10;99.90
52643;DHT22;38531;53.296;6.614;2022-07-22T11:26:31;20.80;99.90
52643;DHT22;38531;53.296;6.614;2022-07-22T11:28:59;20.40;99.90
52643;DHT22;38531;53.296;6.614;2022-07-22T11:31:26;20.10;99.90
52643;DHT22;38531;53.296;6.614;2022-07-22T11:33:52;20.10;99.90
52643;DHT22;38531;53.296;6.614;2022-07-22T11:36:32;20.10;99.90
52643;DHT22;38531;53.296;6.614;2022-07-22T11:38:58;20.00;99.90
52643;DHT22;38531;53.296;6.614;2022-07-22T11:41:23;20.00;99.90
52643;DHT22;38531;53.296;6.614;2022-07-22T11:43:50;19.80;99.90
52643;DHT22;38531;53.296;6.614;2022-07-22T11:46:17;19.70;99.90
52643;DHT22;38531;53.296;6.614;2022-07-22T11:48:44;19.60;99.90
52643;DHT22;38531;53.296;6.614;2022-07-22T11:51:11;19.90;99.90
52643;DHT22;38531;53.296;6.614;2022-07-22T11:53:41;19.70;99.90
52643;DHT22;38531;53.296;6.614;2022-07-22T11:56:08;19.80;99.90
52643;DHT22;38531;53.296;6.614;2022-07-22T11:58:35;20.00;99.90
52643;DHT22;38531;53.296;6.614;2022-07-22T12:01:01;19.70;99.90
52643;DHT22;38531;53.296;6.614;2022-07-22T12:03:27;19.70;99.90
52643;DHT22;38531;53.296;6.614;2022-07-22T12:05:54;19.60;99.90
52643;DHT22;38531;53.296;6.614;2022-07-22T12:08:21;19.60;99.90
52643;DHT22;38531;53.296;6.614;2022-07-22T12:10:49;19.60;99.90
52643;DHT22;38531;53.296;6.614;2022-07-22T12:13:15;19.80;99.90
52643;DHT22;38531;53.296;6.614;2022-07-22T12:15:41;19.90;99.90
52643;DHT22;38531;53.296;6.614;2022-07-22T12:18:21;19.80;99.90
52643;DHT22;38531;53.296;6.614;2022-07-22T12:20:48;19.90;99.90
52643;DHT22;38531;53.296;6.614;2022-07-22T12:23:14;19.90;99.90
52643;DHT22;38531;53.296;6.614;2022-07-22T12:25:57;19.90;99.90
52643;DHT22;38531;53.296;6.614;2022-07-22T12:28:24;19.90;99.90
52643;DHT22;38531;53.296;6.614;2022-07-22T12:30:52;19.90;99.90
52643;DHT22;38531;53.296;6.614;2022-07-22T12:33:20;19.90;99.90
52643;DHT22;38531;53.296;6.614;2022-07-22T12:36:06;19.90;99.90
52643;DHT22;38531;53.296;6.614;2022-07-22T12:38:32;20.10;99.90
52643;DHT22;38531;53.296;6.614;2022-07-22T12:41:29;20.20;99.90
52643;DHT22;38531;53.296;6.614;2022-07-22T12:43:55;20.30;99.90
52643;DHT22;38531;53.296;6.614;2022-07-22T12:46:21;20.10;99.90
52643;DHT22;38531;53.296;6.614;2022-07-22T12:48:52;20.20;99.90
52643;DHT22;38531;53.296;6.614;2022-07-22T12:51:27;20.20;99.90
52643;DHT22;38531;53.296;6.614;2022-07-22T12:53:53;20.40;99.90
52643;DHT22;38531;53.296;6.614;2022-07-22T12:56:20;20.40;99.90
52643;DHT22;38531;53.296;6.614;2022-07-22T12:58:46;20.40;99.90
52643;DHT22;38531;53.296;6.614;2022-07-22T13:01:12;20.30;99.90
52643;DHT22;38531;53.296;6.614;2022-07-22T13:03:37;20.20;99.90
52643;DHT22;38531;53.296;6.614;2022-07-22T13:06:04;20.30;99.90
52643;DHT22;38531;53.296;6.614;2022-07-22T13:08:30;20.30;99.90
52643;DHT22;38531;53.296;6.614;2022-07-22T13:10:57;19.70;99.90
52643;DHT22;38531;53.296;6.614;2022-07-22T13:13:23;20.10;99.90
52643;DHT22;38531;53.296;6.614;2022-07-22T13:15:55;20.20;99.90
52643;DHT22;38531;53.296;6.614;2022-07-22T13:18:21;20.20;99.90
52643;DHT22;38531;53.296;6.614;2022-07-22T13:28:17;20.00;99.90
52643;DHT22;38531;53.296;6.614;2022-07-22T15:46:46;20.00;99.90
52643;DHT22;38531;53.296;6.614;2022-07-22T15:49:14;19.90;99.90
52643;DHT22;38531;53.296;6.614;2022-07-22T15:51:55;19.80;99.90
52643;DHT22;38531;53.296;6.614;2022-07-22T15:54:21;19.60;99.90
52643;DHT22;38531;53.296;6.614;2022-07-22T15:56:47;19.50;99.90
52643;DHT22;38531;53.296;6.614;2022-07-22T15:59:14;19.50;99.90
52643;DHT22;38531;53.296;6.614;2022-07-22T16:02:01;19.40;99.90
52643;DHT22;38531;53.296;6.614;2022-07-22T16:04:35;19.30;99.90
52643;DHT22;38531;53.296;6.614;2022-07-22T16:07:02;19.10;99.90
52643;DHT22;38531;53.296;6.614;2022-07-22T16:09:27;19.10;99.90
52643;DHT22;38531;53.296;6.614;2022-07-22T16:11:53;19.10;99.90
52643;DHT22;38531;53.296;6.614;2022-07-22T16:14:19;19.10;99.90
52643;DHT22;38531;53.296;6.614;2022-07-22T16:16:45;19.00;99.90
52643;DHT22;38531;53.296;6.614;2022-07-22T16:19:10;19.00;99.90
52643;DHT22;38531;53.296;6.614;2022-07-22T16:21:36;19.00;99.90
52643;DHT22;38531;53.296;6.614;2022-07-22T16:24:03;19.00;99.90
52643;DHT22;38531;53.296;6.614;2022-07-22T16:26:29;18.90;99.90
52643;DHT22;38531;53.296;6.614;2022-07-22T16:28:55;18.90;99.90
52643;DHT22;38531;53.296;6.614;2022-07-22T16:31:21;18.80;99.90
52643;DHT22;38531;53.296;6.614;2022-07-22T16:33:52;18.80;99.90
52643;DHT22;38531;53.296;6.614;2022-07-22T16:36:18;18.70;99.90
52643;DHT22;38531;53.296;6.614;2022-07-22T16:38:44;18.80;99.90
52643;DHT22;38531;53.296;6.614;2022-07-22T16:41:10;18.80;99.90
52643;DHT22;38531;53.296;6.614;2022-07-22T16:43:35;18.80;99.90
52643;DHT22;38531;53.296;6.614;2022-07-22T16:46:01;18.80;99.90
52643;DHT22;38531;53.296;6.614;2022-07-22T16:48:27;18.80;99.90
52643;DHT22;38531;53.296;6.614;2022-07-22T16:50:53;18.90;99.90
52643;DHT22;38531;53.296;6.614;2022-07-22T16:53:19;18.90;99.90
52643;DHT22;38531;53.296;6.614;2022-07-22T16:55:45;18.80;99.90
52643;DHT22;38531;53.296;6.614;2022-07-22T16:58:11;18.80;99.90
52643;DHT22;38531;53.296;6.614;2022-07-22T17:03:08;18.80;99.90
52643;DHT22;38531;53.296;6.614;2022-07-22T17:09:55;18.70;99.90
52643;DHT22;38531;53.296;6.614;2022-07-22T17:12:43;18.60;99.90
52643;DHT22;38531;53.296;6.614;2022-07-22T17:15:30;18.60;99.90
52643;DHT22;38531;53.296;6.614;2022-07-22T17:17:57;18.70;99.90
52643;DHT22;38531;53.296;6.614;2022-07-22T17:20:26;18.60;99.90
52643;DHT22;38531;53.296;6.614;2022-07-22T17:22:51;18.50;99.90
52643;DHT22;38531;53.296;6.614;2022-07-22T17:25:18;18.50;99.90
52643;DHT22;38531;53.296;6.614;2022-07-22T17:27:49;18.50;99.90
52643;DHT22;38531;53.296;6.614;2022-07-22T17:30:24;18.40;99.90
52643;DHT22;38531;53.296;6.614;2022-07-22T17:32:50;18.30;99.90
52643;DHT22;38531;53.296;6.614;2022-07-22T17:44:38;18.20;99.90
52643;DHT22;38531;53.296;6.614;2022-07-22T17:47:27;18.20;99.90
52643;DHT22;38531;53.296;6.614;2022-07-22T17:49:53;18.20;99.90
52643;DHT22;38531;53.296;6.614;2022-07-22T17:52:19;18.20;99.90
52643;DHT22;38531;53.296;6.614;2022-07-22T17:54:51;18.10;99.90
52643;DHT22;38531;53.296;6.614;2022-07-22T17:57:47;18.10;99.90
52643;DHT22;38531;53.296;6.614;2022-07-22T18:00:57;18.10;99.90
52643;DHT22;38531;53.296;6.614;2022-07-22T18:04:05;18.00;99.90
52643;DHT22;38531;53.296;6.614;2022-07-22T18:06:40;18.00;99.90
52643;DHT22;38531;53.296;6.614;2022-07-22T18:09:36;17.90;99.90
52643;DHT22;38531;53.296;6.614;2022-07-22T18:12:15;18.00;99.90
52643;DHT22;38531;53.296;6.614;2022-07-22T18:15:01;18.00;99.90
52643;DHT22;38531;53.296;6.614;2022-07-22T18:17:54;18.10;99.90
52643;DHT22;38531;53.296;6.614;2022-07-22T18:24:37;17.60;99.90
52643;DHT22;38531;53.296;6.614;2022-07-22T18:27:37;18.00;99.90
52643;DHT22;38531;53.296;6.614;2022-07-22T18:40:21;17.70;99.90
52643;DHT22;38531;53.296;6.614;2022-07-22T18:42:47;17.60;99.90
52643;DHT22;38531;53.296;6.614;2022-07-22T18:45:13;17.60;99.90
52643;DHT22;38531;53.296;6.614;2022-07-22T18:47:38;17.60;99.90
52643;DHT22;38531;53.296;6.614;2022-07-22T18:50:15;17.60;99.90
52643;DHT22;38531;53.296;6.614;2022-07-22T18:52:43;17.60;99.90
52643;DHT22;38531;53.296;6.614;2022-07-22T18:55:20;17.50;99.90
52643;DHT22;38531;53.296;6.614;2022-07-22T18:57:53;17.50;99.90
52643;DHT22;38531;53.296;6.614;2022-07-22T19:00:28;17.50;99.90
52643;DHT22;38531;53.296;6.614;2022-07-22T19:02:54;17.50;99.90
52643;DHT22;38531;53.296;6.614;2022-07-22T19:05:22;17.50;99.90
52643;DHT22;38531;53.296;6.614;2022-07-22T19:07:50;17.50;99.90
52643;DHT22;38531;53.296;6.614;2022-07-22T19:10:18;17.50;99.90
52643;DHT22;38531;53.296;6.614;2022-07-22T19:18:45;17.30;99.90
52643;DHT22;38531;53.296;6.614;2022-07-22T19:21:11;17.30;99.90
52643;DHT22;38531;53.296;6.614;2022-07-22T19:23:37;17.30;99.90
52643;DHT22;38531;53.296;6.614;2022-07-22T19:26:02;17.40;99.90
52643;DHT22;38531;53.296;6.614;2022-07-22T19:28:28;17.30;99.90
52643;DHT22;38531;53.296;6.614;2022-07-22T19:30:54;17.30;99.90
52643;DHT22;38531;53.296;6.614;2022-07-22T19:33:21;17.30;99.90
52643;DHT22;38531;53.296;6.614;2022-07-22T19:35:46;17.30;99.90
52643;DHT22;38531;53.296;6.614;2022-07-22T19:38:12;17.30;99.90
52643;DHT22;38531;53.296;6.614;2022-07-22T19:40:38;17.20;99.90
52643;DHT22;38531;53.296;6.614;2022-07-22T19:43:05;17.30;99.90
52643;DHT22;38531;53.296;6.614;2022-07-22T19:45:43;17.20;99.90
52643;DHT22;38531;53.296;6.614;2022-07-22T19:48:09;17.20;99.90
52643;DHT22;38531;53.296;6.614;2022-07-22T19:50:35;17.10;99.90
52643;DHT22;38531;53.296;6.614;2022-07-22T19:53:01;17.10;99.90
52643;DHT22;38531;53.296;6.614;2022-07-22T19:55:27;17.10;99.90
52643;DHT22;38531;53.296;6.614;2022-07-22T19:57:53;17.10;99.90
52643;DHT22;38531;53.296;6.614;2022-07-22T20:00:18;17.00;99.90
52643;DHT22;38531;53.296;6.614;2022-07-22T20:02:48;17.10;99.90
52643;DHT22;38531;53.296;6.614;2022-07-22T20:05:14;17.00;99.90
52643;DHT22;38531;53.296;6.614;2022-07-22T20:07:39;16.90;99.90
52643;DHT22;38531;53.296;6.614;2022-07-22T20:10:05;16.90;99.90
52643;DHT22;38531;53.296;6.614;2022-07-22T20:12:32;16.90;99.90
52643;DHT22;38531;53.296;6.614;2022-07-22T20:14:58;16.90;99.90
52643;DHT22;38531;53.296;6.614;2022-07-22T20:17:24;16.90;99.90
52643;DHT22;38531;53.296;6.614;2022-07-22T20:19:50;16.90;99.90